Terminal Aerodrome Forecast
Issued by NWS

Home | Current Version | Previous Version | Text Only | Print | Product List | Glossary On
Versions: 1 2 3 4 5 6 7 8 9 10 11 12 13 14 15 16 17 18 19 20
290
FTUS43 KAPX 190540
TAFTVC
TAF
KTVC 190540Z 1906/2006 17008KT P6SM BKN120 WS020/19050KT
     FM190900 18006KT P6SM BKN090 WS020/21040KT
     FM191200 18006KT P6SM OVC060 WS020/21030KT
     FM191400 17004KT P6SM OVC015
     FM191700 VRB03KT 6SM -DZ OVC012
     FM192100 04004KT 3SM -RA OVC008
     FM200000 04008KT 1 1/2SM -RA BR OVC005
     FM200500 08006KT 1SM -RA BR OVC008=

USA.gov is the U.S. government's official web portal to all federal, state and local government web resources and services.